createdAt,value
2018-12-13T00:00:39.215Z,98622.83
2018-12-13T00:03:06.665Z,98629.86
2018-12-13T00:05:34.133Z,98628.34
2018-12-13T00:08:01.578Z,98628.47
2018-12-13T00:10:29.046Z,98635.23
2018-12-13T00:12:56.490Z,98620.61
2018-12-13T00:15:26.034Z,98621.73
2018-12-13T00:17:53.481Z,98628.28
2018-12-13T00:20:20.929Z,98625.12
2018-12-13T00:22:48.396Z,98629.67
2018-12-13T00:25:15.850Z,98626.55
2018-12-13T00:27:43.309Z,98623.42
2018-12-13T00:30:10.758Z,98619.72
2018-12-13T00:32:38.219Z,98624.95
2018-12-13T00:35:05.672Z,98622.26
2018-12-13T00:37:33.129Z,98619.28
2018-12-13T00:40:00.584Z,98621.80
2018-12-13T00:42:28.067Z,98623.55
2018-12-13T00:44:55.617Z,98620.91
2018-12-13T00:47:23.077Z,98622.70
2018-12-13T00:49:50.528Z,98621.64
2018-12-13T00:52:18.477Z,98622.95
2018-12-13T00:54:45.931Z,98621.21
2018-12-13T00:57:13.391Z,98629.09
2018-12-13T00:59:40.843Z,98631.01
2018-12-13T01:02:08.313Z,98630.46
2018-12-13T01:04:35.778Z,98633.11
2018-12-13T01:07:03.237Z,98627.95
2018-12-13T01:09:30.709Z,98631.23
2018-12-13T01:11:58.154Z,98637.94
2018-12-13T01:14:25.631Z,98632.27
2018-12-13T01:16:53.077Z,98638.54
2018-12-13T01:19:20.544Z,98635.85
2018-12-13T01:21:48.006Z,98637.52
2018-12-13T01:24:15.482Z,98635.05
2018-12-13T01:26:42.938Z,98632.69
2018-12-13T01:29:10.409Z,98632.98
2018-12-13T01:31:37.861Z,98636.19
2018-12-13T01:34:05.324Z,98629.69
2018-12-13T01:36:32.769Z,98635.10
2018-12-13T01:39:00.224Z,98625.42
2018-12-13T01:41:27.679Z,98634.44
2018-12-13T01:43:55.158Z,98625.80
2018-12-13T01:46:22.601Z,98626.36
2018-12-13T01:48:50.061Z,98624.00
2018-12-13T01:51:17.524Z,98623.04
2018-12-13T01:53:44.973Z,98612.52
2018-12-13T01:56:12.441Z,98615.03
2018-12-13T01:58:39.886Z,98621.50
2018-12-13T02:01:07.360Z,98619.29
2018-12-13T02:03:34.817Z,98607.80
2018-12-13T02:06:02.291Z,98617.53
2018-12-13T02:08:29.736Z,98613.13
2018-12-13T02:10:57.194Z,98612.84
2018-12-13T02:13:24.745Z,98613.27
2018-12-13T02:15:52.302Z,98610.08
2018-12-13T02:18:19.753Z,98604.28
2018-12-13T02:20:47.235Z,98604.65
2018-12-13T02:23:14.688Z,98596.63
2018-12-13T02:25:42.270Z,98594.23
2018-12-13T02:28:09.733Z,98596.25
2018-12-13T02:30:37.195Z,98592.08
2018-12-13T02:33:04.650Z,98594.07
2018-12-13T02:35:32.137Z,98585.11
2018-12-13T02:37:59.598Z,98583.13
2018-12-13T02:40:27.165Z,98587.80
2018-12-13T02:42:54.610Z,98583.23
2018-12-13T02:45:22.066Z,98579.43
2018-12-13T02:47:49.514Z,98571.75
2018-12-13T02:50:16.971Z,98566.59
2018-12-13T02:52:44.443Z,98564.16
2018-12-13T02:55:11.894Z,98558.39
2018-12-13T02:57:39.676Z,98555.26
2018-12-13T03:00:07.125Z,98549.91
2018-12-13T03:02:34.594Z,98550.91
2018-12-13T03:05:02.033Z,98547.08
2018-12-13T03:07:29.494Z,98541.97
2018-12-13T03:09:56.949Z,98540.25
2018-12-13T03:12:24.413Z,98536.63
2018-12-13T03:14:51.873Z,98533.70
2018-12-13T03:17:19.337Z,98518.88
2018-12-13T03:19:46.781Z,98527.14
2018-12-13T03:22:14.247Z,98531.64
2018-12-13T03:24:41.698Z,98523.07
2018-12-13T03:27:09.158Z,98519.59
2018-12-13T03:29:37.643Z,98515.89
2018-12-13T03:32:05.115Z,98514.65
2018-12-13T03:34:32.679Z,98504.58
2018-12-13T03:37:00.210Z,98510.30
2018-12-13T03:39:27.687Z,98507.77
2018-12-13T03:41:55.140Z,98505.61
2018-12-13T03:44:22.623Z,98504.92
2018-12-13T03:46:50.069Z,98502.81
2018-12-13T03:49:17.539Z,98505.27
2018-12-13T03:51:44.990Z,98504.52
2018-12-13T03:54:12.459Z,98491.86
2018-12-13T03:56:40.413Z,98497.39
2018-12-13T03:59:07.877Z,98499.78
2018-12-13T04:01:35.321Z,98502.81
2018-12-13T04:04:02.784Z,98500.52
2018-12-13T04:06:30.242Z,98498.05
2018-12-13T04:08:57.716Z,98499.41
2018-12-13T04:11:25.173Z,98496.76
2018-12-13T04:13:52.637Z,98494.13
2018-12-13T04:16:20.080Z,98492.35
2018-12-13T04:18:47.564Z,98496.53
2018-12-13T04:21:15.122Z,98482.02
2018-12-13T04:23:42.565Z,98482.34
2018-12-13T04:26:10.048Z,98481.47
2018-12-13T04:28:37.516Z,98480.58
2018-12-13T04:31:04.991Z,98482.00
2018-12-13T04:33:32.438Z,98485.08
2018-12-13T04:35:59.913Z,98469.36
2018-12-13T04:38:27.361Z,98478.22
2018-12-13T04:40:54.828Z,98474.45
2018-12-13T04:43:22.281Z,98482.03
2018-12-13T04:45:49.742Z,98482.53
2018-12-13T04:48:17.202Z,98479.14
2018-12-13T04:50:45.389Z,98477.40
2018-12-13T04:53:12.843Z,98476.77
2018-12-13T04:55:40.296Z,98477.50
2018-12-13T04:58:07.746Z,98476.59
2018-12-13T05:00:35.220Z,98472.91
2018-12-13T05:03:02.690Z,98478.03
2018-12-13T05:05:30.153Z,98476.48
2018-12-13T05:07:57.601Z,98477.94
2018-12-13T05:10:36.825Z,98470.54
2018-12-13T05:13:04.275Z,98467.03
2018-12-13T05:15:31.727Z,98474.30
2018-12-13T05:17:59.205Z,98470.31
2018-12-13T05:20:26.657Z,98467.72
2018-12-13T05:22:54.135Z,98472.41
2018-12-13T05:25:21.577Z,98463.14
2018-12-13T05:27:49.047Z,98466.11
2018-12-13T05:30:16.601Z,98457.06
2018-12-13T05:32:44.065Z,98463.88
2018-12-13T05:35:11.528Z,98456.60
2018-12-13T05:37:38.990Z,98462.93
2018-12-13T05:40:06.440Z,98446.48
2018-12-13T05:42:33.910Z,98463.13
2018-12-13T05:45:01.362Z,98466.89
2018-12-13T05:47:28.820Z,98463.11
2018-12-13T05:49:56.274Z,98458.97
2018-12-13T05:52:23.750Z,98461.05
2018-12-13T05:54:51.195Z,98463.53
2018-12-13T05:57:18.644Z,98452.16
2018-12-13T05:59:46.117Z,98453.45
2018-12-13T06:02:13.567Z,98453.89
2018-12-13T06:04:41.026Z,98453.12
2018-12-13T06:07:08.473Z,98454.95
2018-12-13T06:09:36.007Z,98452.55
2018-12-13T06:12:03.457Z,98453.97
2018-12-13T06:14:30.930Z,98450.47
2018-12-13T06:16:58.474Z,98443.58
2018-12-13T06:19:26.778Z,98442.58
2018-12-13T06:21:54.497Z,98433.22
2018-12-13T06:24:21.956Z,98445.79
2018-12-13T06:26:49.434Z,98450.31
2018-12-13T06:29:16.902Z,98452.73
2018-12-13T06:31:44.346Z,98452.94
2018-12-13T06:34:11.800Z,98453.12
2018-12-13T06:36:39.254Z,98455.36
2018-12-13T06:39:07.595Z,98453.94
2018-12-13T06:41:35.209Z,98448.13
2018-12-13T06:44:02.665Z,98450.09
2018-12-13T06:46:30.118Z,98442.75
2018-12-13T06:48:57.554Z,98448.48
2018-12-13T06:51:25.237Z,98446.70
2018-12-13T06:53:52.691Z,98448.11
2018-12-13T06:56:20.189Z,98451.25
2018-12-13T06:58:47.653Z,98451.03
2018-12-13T07:01:15.121Z,98448.96
2018-12-13T07:03:42.569Z,98452.65
2018-12-13T07:06:10.041Z,98450.41
2018-12-13T07:08:37.567Z,98440.09
2018-12-13T07:11:05.106Z,98452.20
2018-12-13T07:13:32.558Z,98451.77
2018-12-13T07:16:00.037Z,98462.52
2018-12-13T07:18:27.479Z,98458.49
2018-12-13T07:20:54.925Z,98463.23
2018-12-13T07:23:22.375Z,98455.14
2018-12-13T07:25:49.841Z,98450.55
2018-12-13T07:28:17.284Z,98454.06
2018-12-13T07:30:44.738Z,98459.55
2018-12-13T07:33:12.189Z,98456.53
2018-12-13T07:35:39.638Z,98451.28
2018-12-13T07:38:07.095Z,98452.95
2018-12-13T07:40:34.549Z,98449.86
2018-12-13T07:43:02.017Z,98450.31
2018-12-13T07:45:29.473Z,98441.28
2018-12-13T07:47:56.933Z,98441.20
2018-12-13T07:50:24.380Z,98444.34
2018-12-13T07:52:51.853Z,98443.95
2018-12-13T07:55:19.301Z,98448.53
2018-12-13T07:57:46.865Z,98445.28
2018-12-13T08:00:14.308Z,98445.75
2018-12-13T08:02:41.759Z,98443.98
2018-12-13T08:05:09.211Z,98438.62
2018-12-13T08:07:36.665Z,98428.79
2018-12-13T08:10:04.985Z,98433.81
2018-12-13T08:12:32.448Z,98431.08
2018-12-13T08:14:59.898Z,98436.02
2018-12-13T08:17:27.358Z,98439.11
2018-12-13T08:19:54.817Z,98434.83
2018-12-13T08:22:22.265Z,98440.98
2018-12-13T08:24:49.737Z,98436.11
2018-12-13T08:27:17.175Z,98437.56
2018-12-13T08:29:44.643Z,98436.38
2018-12-13T08:32:12.108Z,98443.19
2018-12-13T08:34:39.574Z,98444.38
2018-12-13T08:37:07.014Z,98444.99
2018-12-13T08:39:34.480Z,98440.19
2018-12-13T08:42:01.929Z,98438.37
2018-12-13T08:44:29.389Z,98442.92
2018-12-13T08:46:56.833Z,98427.58
2018-12-13T08:49:24.306Z,98432.61
2018-12-13T08:51:51.755Z,98438.05
2018-12-13T08:54:19.218Z,98448.48
2018-12-13T08:56:46.661Z,98444.85
2018-12-13T08:59:14.122Z,98441.57
2018-12-13T09:01:41.703Z,98444.85
2018-12-13T09:04:09.160Z,98435.98
2018-12-13T09:06:36.832Z,98433.89
2018-12-13T09:09:07.135Z,98443.24
2018-12-13T09:11:34.577Z,98440.17
2018-12-13T09:14:02.304Z,98440.04
2018-12-13T09:16:31.674Z,98435.77
2018-12-13T09:18:59.220Z,98439.00
2018-12-13T09:21:26.693Z,98431.44
2018-12-13T09:23:54.130Z,98430.03
2018-12-13T09:26:21.581Z,98425.67
2018-12-13T09:28:49.043Z,98433.08
2018-12-13T09:31:16.588Z,98421.39
2018-12-13T09:33:44.022Z,98420.09
2018-12-13T09:36:11.474Z,98411.05
2018-12-13T09:38:39.973Z,98419.41
2018-12-13T09:41:07.698Z,98412.45
2018-12-13T09:43:35.136Z,98406.78
2018-12-13T09:46:02.591Z,98410.61
2018-12-13T09:48:30.033Z,98399.81
2018-12-13T09:50:57.502Z,98404.84
2018-12-13T09:53:24.977Z,98401.31
2018-12-13T09:55:52.437Z,98400.27
2018-12-13T09:58:19.883Z,98394.94
2018-12-13T10:00:47.358Z,98390.27
2018-12-13T10:03:14.796Z,98392.02
2018-12-13T10:05:42.246Z,98393.83
2018-12-13T10:08:09.711Z,98390.86
2018-12-13T10:10:37.174Z,98395.24
2018-12-13T10:13:04.642Z,98386.34
2018-12-13T10:15:32.435Z,98382.33
2018-12-13T10:18:00.324Z,98390.52
2018-12-13T10:20:27.766Z,98378.58
2018-12-13T10:22:55.222Z,98380.52
2018-12-13T10:25:22.666Z,98383.97
2018-12-13T10:27:50.111Z,98380.55
2018-12-13T10:30:17.571Z,98380.66
2018-12-13T10:32:45.019Z,98372.30
2018-12-13T10:35:12.554Z,98364.22
2018-12-13T10:37:39.997Z,98369.30
2018-12-13T10:40:07.544Z,98362.97
2018-12-13T10:42:34.991Z,98368.70
2018-12-13T10:45:02.457Z,98359.92
2018-12-13T10:47:29.906Z,98352.65
2018-12-13T10:49:57.369Z,98348.83
2018-12-13T10:52:24.826Z,98349.78
2018-12-13T10:54:52.295Z,98345.19
2018-12-13T10:57:19.750Z,98345.25
2018-12-13T10:59:47.219Z,98338.07
2018-12-13T11:02:20.192Z,98349.97
2018-12-13T11:04:47.659Z,98344.85
2018-12-13T11:07:16.081Z,98339.51
2018-12-13T11:09:43.539Z,98332.63
2018-12-13T11:12:10.982Z,98333.00
2018-12-13T11:14:38.416Z,98326.82
2018-12-13T11:17:05.872Z,98332.86
2018-12-13T11:19:33.326Z,98324.79
2018-12-13T11:22:00.790Z,98325.55
2018-12-13T11:24:28.229Z,98327.88
2018-12-13T11:26:59.652Z,98324.43
2018-12-13T11:29:38.851Z,98322.84
2018-12-13T11:32:06.313Z,98328.97
2018-12-13T11:34:33.759Z,98315.58
2018-12-13T11:37:01.252Z,98320.80
2018-12-13T11:39:28.712Z,98318.13
2018-12-13T11:41:56.170Z,98313.43
2018-12-13T11:44:23.618Z,98314.09
2018-12-13T11:46:51.089Z,98314.89
2018-12-13T11:49:18.531Z,98311.34
2018-12-13T11:51:45.985Z,98314.92
2018-12-13T11:54:16.985Z,98310.48
2018-12-13T11:56:44.821Z,98316.66
2018-12-13T11:59:12.272Z,98312.27
2018-12-13T12:01:39.726Z,98306.73
2018-12-13T12:04:07.178Z,98299.11
2018-12-13T12:06:34.632Z,98305.11
2018-12-13T12:09:02.101Z,98299.98
2018-12-13T12:11:29.545Z,98299.03
2018-12-13T12:13:57.009Z,98289.14
2018-12-13T12:16:24.452Z,98300.09
2018-12-13T12:18:51.905Z,98291.88
2018-12-13T12:21:19.817Z,98291.34
2018-12-13T12:23:47.732Z,98299.31
2018-12-13T12:26:15.161Z,98286.13
2018-12-13T12:28:42.650Z,98298.91
2018-12-13T12:31:10.101Z,98290.79
2018-12-13T12:33:37.577Z,98287.78
2018-12-13T12:36:05.038Z,98279.95
2018-12-13T12:38:32.489Z,98285.80
2018-12-13T12:40:59.953Z,98285.62
2018-12-13T12:43:27.402Z,98284.61
2018-12-13T12:45:54.859Z,98277.06
2018-12-13T12:48:22.310Z,98280.65
2018-12-13T12:50:49.771Z,98273.22
2018-12-13T12:53:17.243Z,98271.81
2018-12-13T12:55:44.701Z,98269.84
2018-12-13T12:58:12.146Z,98274.27
2018-12-13T13:00:39.617Z,98275.36
2018-12-13T13:03:07.067Z,98271.98
2018-12-13T13:05:34.525Z,98276.98
2018-12-13T13:08:01.976Z,98273.80
2018-12-13T13:10:29.442Z,98274.34
2018-12-13T13:12:57.611Z,98273.21
2018-12-13T13:15:25.060Z,98276.38
2018-12-13T13:17:52.508Z,98277.27
2018-12-13T13:20:19.978Z,98275.38
2018-12-13T13:22:47.435Z,98277.16
2018-12-13T13:25:14.882Z,98270.78
2018-12-13T13:27:42.344Z,98281.63
2018-12-13T13:30:09.870Z,98279.67
2018-12-13T13:32:37.342Z,98289.16
2018-12-13T13:35:04.786Z,98280.66
2018-12-13T13:37:32.246Z,98280.34
2018-12-13T13:39:59.681Z,98288.55
2018-12-13T13:42:27.195Z,98282.31
2018-12-13T13:44:56.626Z,98289.14
2018-12-13T13:47:24.090Z,98292.84
2018-12-13T13:49:51.545Z,98294.58
2018-12-13T13:52:19.002Z,98293.68
2018-12-13T13:54:46.451Z,98302.13
2018-12-13T13:57:13.924Z,98302.95
2018-12-13T13:59:41.397Z,98305.24
2018-12-13T14:02:08.859Z,98302.53
2018-12-13T14:04:36.313Z,98310.73
2018-12-13T14:07:03.789Z,98307.30
2018-12-13T14:09:37.638Z,98312.22
2018-12-13T14:12:00.717Z,98316.06
2018-12-13T14:14:28.161Z,98309.64
2018-12-13T14:16:55.609Z,98318.56
2018-12-13T14:19:23.106Z,98310.12
2018-12-13T14:21:50.562Z,98302.36
2018-12-13T14:24:18.026Z,98308.30
2018-12-13T14:26:45.468Z,98303.97
2018-12-13T14:29:12.951Z,98312.20
2018-12-13T14:31:40.386Z,98312.20
2018-12-13T14:34:07.847Z,98311.45
2018-12-13T14:36:35.318Z,98312.50
2018-12-13T14:39:05.034Z,98317.84
2018-12-13T14:41:32.466Z,98310.50
2018-12-13T14:43:59.910Z,98307.29
2018-12-13T14:46:27.367Z,98303.91
2018-12-13T14:48:54.818Z,98309.77
2018-12-13T14:51:22.311Z,98308.54
2018-12-13T14:53:49.791Z,98315.97
2018-12-13T14:56:17.259Z,98310.08
2018-12-13T14:58:44.790Z,98315.48
2018-12-13T15:01:12.274Z,98306.67
2018-12-13T15:03:39.718Z,98304.81
2018-12-13T15:06:07.174Z,98294.66
2018-12-13T15:08:34.621Z,98304.97
2018-12-13T15:11:02.071Z,98292.68
2018-12-13T15:13:29.544Z,98306.59
2018-12-13T15:15:56.977Z,98309.55
2018-12-13T15:18:24.445Z,98314.34
2018-12-13T15:20:51.914Z,98310.94
2018-12-13T15:23:19.479Z,98308.25
2018-12-13T15:25:46.925Z,98303.77
2018-12-13T15:28:14.380Z,98303.87
2018-12-13T15:30:41.843Z,98308.86
2018-12-13T15:33:09.309Z,98305.37
2018-12-13T15:35:36.762Z,98302.05
2018-12-13T15:38:04.282Z,98311.55
2018-12-13T15:40:31.741Z,98306.70
2018-12-13T15:42:59.198Z,98314.35
2018-12-13T15:45:27.126Z,98306.88
2018-12-13T15:47:54.596Z,98315.51
2018-12-13T15:50:22.046Z,98310.15
2018-12-13T15:52:49.496Z,98325.09
2018-12-13T15:55:16.970Z,98321.70
2018-12-13T15:57:44.418Z,98314.14
2018-12-13T16:00:11.877Z,98314.78
2018-12-13T16:02:39.427Z,98317.47
2018-12-13T16:05:06.967Z,98315.51
2018-12-13T16:07:34.431Z,98312.41
2018-12-13T16:10:03.961Z,98315.84
2018-12-13T16:12:31.469Z,98322.19
2018-12-13T16:14:59.040Z,98316.20
2018-12-13T16:17:26.492Z,98320.41
2018-12-13T16:19:53.954Z,98322.09
2018-12-13T16:22:21.568Z,98320.40
2018-12-13T16:24:49.199Z,98317.76
2018-12-13T16:27:16.718Z,98316.41
2018-12-13T16:29:44.182Z,98316.70
2018-12-13T16:32:11.653Z,98307.07
2018-12-13T16:34:39.118Z,98314.63
2018-12-13T16:37:06.561Z,98314.23
2018-12-13T16:39:34.002Z,98310.16
2018-12-13T16:42:01.502Z,98311.05
2018-12-13T16:44:28.975Z,98313.47
2018-12-13T16:46:56.450Z,98313.62
2018-12-13T16:49:23.896Z,98312.61
2018-12-13T16:51:51.357Z,98315.87
2018-12-13T16:54:18.800Z,98314.50
2018-12-13T16:56:46.261Z,98321.93
2018-12-13T16:59:13.712Z,98321.08
2018-12-13T17:01:41.175Z,98321.58
2018-12-13T17:04:08.625Z,98320.88
2018-12-13T17:06:36.088Z,98324.29
2018-12-13T17:09:04.898Z,98319.95
2018-12-13T17:11:32.366Z,98327.27
2018-12-13T17:13:59.823Z,98328.39
2018-12-13T17:16:27.265Z,98316.49
2018-12-13T17:18:54.719Z,98319.78
2018-12-13T17:21:22.173Z,98329.80
2018-12-13T17:23:49.631Z,98333.98
2018-12-13T17:26:17.078Z,98322.40
2018-12-13T17:28:44.749Z,98330.22
2018-12-13T17:31:12.188Z,98324.98
2018-12-13T17:33:39.651Z,98319.68
2018-12-13T17:36:07.110Z,98317.43
2018-12-13T17:38:34.572Z,98320.90
2018-12-13T17:41:02.024Z,98317.02
2018-12-13T17:43:29.478Z,98321.92
2018-12-13T17:45:56.917Z,98316.80
2018-12-13T17:48:24.382Z,98318.88
2018-12-13T17:50:51.828Z,98324.05
2018-12-13T17:53:19.769Z,98322.06
2018-12-13T17:55:47.227Z,98327.25
2018-12-13T17:58:14.710Z,98326.40
2018-12-13T18:00:42.166Z,98324.44
2018-12-13T18:03:09.892Z,98327.95
2018-12-13T18:05:37.499Z,98332.39
2018-12-13T18:08:04.940Z,98332.94
2018-12-13T18:10:32.400Z,98322.98
2018-12-13T18:12:59.833Z,98322.22
2018-12-13T18:15:27.330Z,98322.34
2018-12-13T18:17:54.853Z,98329.47
2018-12-13T18:20:22.322Z,98327.05
2018-12-13T18:22:49.781Z,98325.38
2018-12-13T18:25:17.271Z,98332.42
2018-12-13T18:27:44.726Z,98334.02
2018-12-13T18:30:12.178Z,98334.78
2018-12-13T18:32:39.630Z,98335.81
2018-12-13T18:35:07.099Z,98330.93
2018-12-13T18:37:34.533Z,98331.28
2018-12-13T18:40:02.003Z,98334.64
2018-12-13T18:42:29.461Z,98339.48
2018-12-13T18:44:56.925Z,98336.77
2018-12-13T18:47:24.373Z,98343.14
2018-12-13T18:49:51.827Z,98344.78
2018-12-13T18:52:19.328Z,98343.31
2018-12-13T18:54:46.767Z,98343.03
2018-12-13T18:57:14.225Z,98341.19
2018-12-13T18:59:41.670Z,98352.45
2018-12-13T19:02:09.151Z,98351.03
2018-12-13T19:04:36.593Z,98354.77
2018-12-13T19:07:04.052Z,98348.86
2018-12-13T19:09:31.767Z,98357.88
2018-12-13T19:11:59.229Z,98352.84
2018-12-13T19:14:26.683Z,98358.05
2018-12-13T19:16:54.170Z,98362.16
2018-12-13T19:19:21.615Z,98365.03
2018-12-13T19:21:49.082Z,98360.09
2018-12-13T19:24:16.548Z,98367.78
2018-12-13T19:26:44.040Z,98361.36
2018-12-13T19:29:11.481Z,98368.58
2018-12-13T19:31:38.949Z,98371.16
2018-12-13T19:34:06.400Z,98369.69
2018-12-13T19:36:33.890Z,98367.83
2018-12-13T19:39:01.349Z,98374.41
2018-12-13T19:41:28.847Z,98377.08
2018-12-13T19:43:56.319Z,98382.63
2018-12-13T19:46:23.770Z,98374.31
2018-12-13T19:48:51.246Z,98381.47
2018-12-13T19:51:18.690Z,98373.75
2018-12-13T19:53:46.158Z,98375.79
2018-12-13T19:56:14.027Z,98381.49
2018-12-13T19:58:41.570Z,98383.77
2018-12-13T20:01:09.017Z,98386.81
2018-12-13T20:03:36.587Z,98377.39
2018-12-13T20:06:04.129Z,98390.95
2018-12-13T20:08:31.593Z,98386.66
2018-12-13T20:10:59.052Z,98389.07
2018-12-13T20:13:26.510Z,98383.56
2018-12-13T20:15:53.967Z,98388.16
2018-12-13T20:18:21.444Z,98386.50
2018-12-13T20:20:48.896Z,98389.95
2018-12-13T20:23:16.369Z,98383.45
2018-12-13T20:25:43.821Z,98389.61
2018-12-13T20:28:11.361Z,98397.19
2018-12-13T20:30:38.826Z,98396.27
2018-12-13T20:33:06.285Z,98399.42
2018-12-13T20:35:33.745Z,98395.99
2018-12-13T20:38:01.197Z,98404.90
2018-12-13T20:40:28.662Z,98357.10
2018-12-13T20:42:56.141Z,98395.63
2018-12-13T20:45:23.610Z,98390.88
2018-12-13T20:47:51.056Z,98393.04
2018-12-13T20:50:18.524Z,98388.93
2018-12-13T20:52:45.979Z,98390.38
2018-12-13T20:55:13.457Z,98392.19
2018-12-13T20:57:40.926Z,98389.33
2018-12-13T21:00:09.385Z,98389.25
2018-12-13T21:02:36.869Z,98384.70
2018-12-13T21:05:04.995Z,98383.56
2018-12-13T21:07:33.769Z,98389.67
2018-12-13T21:10:01.555Z,98391.00
2018-12-13T21:12:29.155Z,98391.31
2018-12-13T21:14:56.667Z,98391.16
2018-12-13T21:17:24.173Z,98389.17
2018-12-13T21:19:52.180Z,98382.96
2018-12-13T21:22:19.642Z,98386.66
2018-12-13T21:24:47.111Z,98382.14
2018-12-13T21:27:14.589Z,98385.63
2018-12-13T21:29:42.078Z,98388.66
2018-12-13T21:32:09.578Z,98389.09
2018-12-13T21:34:37.012Z,98394.97
2018-12-13T21:37:04.460Z,98390.02
2018-12-13T21:39:31.962Z,98387.09
2018-12-13T21:41:59.416Z,98388.73
2018-12-13T21:44:26.843Z,98385.78
2018-12-13T21:46:54.315Z,98389.29
2018-12-13T21:49:21.747Z,98385.86
2018-12-13T21:51:49.197Z,98380.61
2018-12-13T21:54:16.631Z,98385.80
2018-12-13T21:56:44.674Z,98390.23
2018-12-13T21:59:12.126Z,98387.31
2018-12-13T22:01:39.583Z,98394.27
2018-12-13T22:04:07.038Z,98388.70
2018-12-13T22:06:34.491Z,98382.47
2018-12-13T22:09:01.990Z,98387.95
2018-12-13T22:11:29.535Z,98387.31
2018-12-13T22:13:57.005Z,98387.73
2018-12-13T22:16:24.449Z,98391.16
2018-12-13T22:18:51.915Z,98388.08
2018-12-13T22:21:19.364Z,98398.86
2018-12-13T22:23:46.846Z,98388.42
2018-12-13T22:26:14.366Z,98399.44
2018-12-13T22:28:41.822Z,98380.66
2018-12-13T22:31:09.271Z,98393.66
2018-12-13T22:33:36.723Z,98394.52
2018-12-13T22:36:04.171Z,98388.63
2018-12-13T22:38:31.639Z,98395.78
2018-12-13T22:40:59.091Z,98397.84
2018-12-13T22:43:26.538Z,98395.89
2018-12-13T22:45:54.022Z,98393.89
2018-12-13T22:48:21.476Z,98390.45
2018-12-13T22:50:48.940Z,98391.28
2018-12-13T22:53:16.373Z,98391.08
2018-12-13T22:55:43.855Z,98393.27
2018-12-13T22:58:11.301Z,98386.70
2018-12-13T23:00:38.902Z,98396.55
2018-12-13T23:03:06.344Z,98389.88
2018-12-13T23:05:33.885Z,98394.48
2018-12-13T23:08:01.346Z,98393.87
2018-12-13T23:10:28.816Z,98385.92
2018-12-13T23:12:56.268Z,98372.91
2018-12-13T23:15:23.731Z,98384.23
2018-12-13T23:17:51.180Z,98376.66
2018-12-13T23:20:19.081Z,98383.05
2018-12-13T23:22:46.524Z,98384.39
2018-12-13T23:25:13.988Z,98382.73
2018-12-13T23:27:41.429Z,98380.96
2018-12-13T23:30:09.473Z,98383.96
2018-12-13T23:32:36.910Z,98381.11
2018-12-13T23:35:04.746Z,98373.53
2018-12-13T23:37:32.209Z,98375.83
2018-12-13T23:39:59.641Z,98374.69
2018-12-13T23:42:27.118Z,98376.42
2018-12-13T23:44:54.845Z,98373.51
2018-12-13T23:47:22.306Z,98372.87
2018-12-13T23:49:49.746Z,98375.24
2018-12-13T23:52:17.196Z,98375.45
2018-12-13T23:54:44.641Z,98365.69
2018-12-13T23:57:12.096Z,98363.17
2018-12-13T23:59:39.543Z,98359.09
